Time;durP1;ratioP1;P1;durP2;ratioP2;P2;SDS_P1;SDS_P2;PMS_P1;PMS_P2;Temp;Humidity;BMP_temperature;BMP_pressure;BME280_temperature;BME280_humidity;BME280_pressure;Samples;Min_cycle;Max_cycle;Signal;HPM_P1;HPM_P2
2023/11/03 00:01:52;;;;;;;1.55;0.00;;;8.80;99.90;;;;;;4957171;28;20091;-75
2023/11/03 00:04:17;;;;;;;3.50;0.08;;;9.30;99.90;;;;;;4974480;28;20054;-75
2023/11/03 00:06:43;;;;;;;1.10;0.00;;;8.70;99.90;;;;;;4974380;28;20035;-75
2023/11/03 00:09:15;;;;;;;1.88;0.00;;;8.70;99.90;;;;;;4957214;28;20483;-75
2023/11/03 00:11:45;;;;;;;3.15;0.10;;;8.70;99.90;;;;;;4973305;28;20027;-75
2023/11/03 00:14:11;;;;;;;3.65;0.00;;;8.70;99.90;;;;;;4957464;28;20041;-75
2023/11/03 00:16:37;;;;;;;3.38;0.00;;;8.70;99.90;;;;;;4974273;28;20026;-75
2023/11/03 00:19:04;;;;;;;1.65;0.00;;;8.70;99.90;;;;;;4974388;28;20554;-74
2023/11/03 00:21:35;;;;;;;1.20;0.00;;;8.60;99.90;;;;;;4974369;28;20051;-74
2023/11/03 00:24:01;;;;;;;0.00;0.00;;;8.60;99.90;;;;;;4974403;28;20421;-75
2023/11/03 00:26:26;;;;;;;1.88;0.15;;;8.60;99.90;;;;;;4974321;28;20026;-75
2023/11/03 00:28:53;;;;;;;6.05;0.00;;;8.60;99.90;;;;;;4974363;28;20022;-75
2023/11/03 00:31:19;;;;;;;2.70;0.00;;;8.60;99.90;;;;;;4974298;28;20554;-74
2023/11/03 00:33:45;;;;;;;1.92;0.00;;;8.60;99.90;;;;;;4974867;28;20105;-75
2023/11/03 00:36:14;;;;;;;1.08;0.00;;;8.60;99.90;;;;;;4977893;28;20030;-75
2023/11/03 00:38:46;;;;;;;1.98;0.25;;;8.60;99.90;;;;;;4976701;28;20132;-74
2023/11/03 00:41:14;;;;;;;1.27;0.30;;;8.60;99.90;;;;;;4977685;28;20149;-73
2023/11/03 00:43:45;;;;;;;5.93;0.28;;;8.60;99.90;;;;;;4960516;28;20023;-73
2023/11/03 00:46:11;;;;;;;2.13;0.00;;;8.60;99.90;;;;;;4978466;28;20579;-73
2023/11/03 00:48:37;;;;;;;4.80;0.30;;;8.50;99.90;;;;;;4977649;28;20093;-73
2023/11/03 00:51:03;;;;;;;0.45;0.00;;;8.50;99.90;;;;;;4977730;28;20158;-74
2023/11/03 00:53:29;;;;;;;1.25;0.10;;;8.60;99.90;;;;;;4960439;28;20118;-74
2023/11/03 00:55:55;;;;;;;0.40;0.00;;;8.60;99.90;;;;;;4977591;28;20521;-74
2023/11/03 00:58:21;;;;;;;1.80;0.38;;;8.60;99.90;;;;;;4960546;28;20035;-74
2023/11/03 01:00:47;;;;;;;2.47;0.10;;;8.60;99.90;;;;;;4977288;28;20505;-74
2023/11/03 01:03:14;;;;;;;0.65;0.00;;;8.60;99.90;;;;;;4960053;28;20446;-74
2023/11/03 01:05:39;;;;;;;0.25;0.00;;;8.60;99.90;;;;;;4960126;28;20453;-74
2023/11/03 01:08:05;;;;;;;2.13;0.05;;;8.60;99.90;;;;;;4959864;28;20023;-74
2023/11/03 01:10:32;;;;;;;4.40;0.00;;;8.50;99.90;;;;;;4977313;28;20046;-74
2023/11/03 01:12:59;;;;;;;0.00;0.00;;;8.50;99.90;;;;;;4959965;28;20037;-74
2023/11/03 01:15:25;;;;;;;2.20;0.00;;;8.50;99.90;;;;;;4977264;28;20079;-74
2023/11/03 01:17:51;;;;;;;0.93;0.00;;;8.50;99.90;;;;;;4959790;28;20039;-74
2023/11/03 01:20:24;;;;;;;1.65;0.10;;;8.60;99.90;;;;;;4959957;28;20019;-74
2023/11/03 01:22:50;;;;;;;0.20;0.00;;;8.60;99.90;;;;;;4959829;28;20033;-74
2023/11/03 01:25:16;;;;;;;0.00;0.00;;;8.60;99.90;;;;;;4977566;28;20399;-74
2023/11/03 01:27:43;;;;;;;0.08;0.00;;;8.60;99.90;;;;;;4976808;28;20030;-74
2023/11/03 01:30:11;;;;;;;0.47;0.00;;;8.60;99.90;;;;;;4977104;28;20019;-74
2023/11/03 01:32:36;;;;;;;3.15;0.52;;;8.60;99.90;;;;;;4976910;28;20082;-74
2023/11/03 01:35:02;;;;;;;0.75;0.00;;;8.60;99.90;;;;;;4977345;28;20415;-74
2023/11/03 01:37:28;;;;;;;0.88;0.22;;;8.60;99.90;;;;;;4977092;28;20050;-74
2023/11/03 01:39:54;;;;;;;1.40;0.65;;;8.60;99.90;;;;;;4976905;28;20069;-74
2023/11/03 01:42:19;;;;;;;1.55;0.00;;;8.70;99.90;;;;;;4976874;28;20027;-74
2023/11/03 01:44:45;;;;;;;1.80;0.00;;;8.70;99.90;;;;;;4976426;28;20098;-74
2023/11/03 01:47:11;;;;;;;0.45;0.00;;;8.70;99.90;;;;;;4976241;28;20508;-74
2023/11/03 01:49:37;;;;;;;0.98;0.00;;;8.70;99.90;;;;;;4959301;28;20077;-74
2023/11/03 01:52:05;;;;;;;3.45;0.00;;;8.70;99.90;;;;;;4977141;28;20018;-74
2023/11/03 01:54:31;;;;;;;0.80;0.00;;;8.70;99.90;;;;;;4975178;28;20038;-74
2023/11/03 01:56:57;;;;;;;0.55;0.00;;;8.70;99.90;;;;;;4959145;28;20042;-74
2023/11/03 01:59:23;;;;;;;4.22;0.00;;;8.70;99.90;;;;;;4976534;28;20031;-73
2023/11/03 02:01:51;;;;;;;2.90;0.00;;;8.70;99.90;;;;;;4958942;28;20077;-73
2023/11/03 02:04:19;;;;;;;2.83;0.00;;;8.70;99.90;;;;;;4959839;28;20022;-74
2023/11/03 02:06:45;;;;;;;2.05;0.08;;;8.70;99.90;;;;;;4958946;28;20031;-74
2023/11/03 02:09:11;;;;;;;1.80;0.05;;;8.70;99.90;;;;;;4976081;28;20023;-74
2023/11/03 02:11:46;;;;;;;2.83;0.38;;;8.70;99.90;;;;;;4976175;28;20031;-75
2023/11/03 02:14:12;;;;;;;2.58;0.30;;;8.80;99.90;;;;;;4959090;28;20034;-74
2023/11/03 02:16:38;;;;;;;1.38;0.65;;;8.80;99.90;;;;;;4958580;28;20030;-74
2023/11/03 02:19:08;;;;;;;1.55;0.05;;;8.80;99.90;;;;;;4976053;28;20027;-74
2023/11/03 02:21:37;;;;;;;4.43;0.13;;;8.80;99.90;;;;;;4976384;28;20118;-74
2023/11/03 02:24:05;;;;;;;1.65;0.00;;;8.80;99.90;;;;;;4975944;28;20394;-74
2023/11/03 02:26:30;;;;;;;3.63;0.00;;;8.80;99.90;;;;;;4976661;28;20370;-74
2023/11/03 02:28:56;;;;;;;2.15;0.00;;;8.80;99.90;;;;;;4958671;28;20018;-75
2023/11/03 02:31:21;;;;;;;3.80;0.38;;;8.80;99.90;;;;;;4975931;28;20394;-74
2023/11/03 02:33:48;;;;;;;1.77;0.35;;;8.80;99.90;;;;;;4958506;28;20027;-74
2023/11/03 02:36:20;;;;;;;2.05;0.00;;;8.80;99.90;;;;;;4958587;28;20425;-74
2023/11/03 02:38:46;;;;;;;0.93;0.00;;;8.80;99.90;;;;;;4975817;28;20458;-74
2023/11/03 02:41:12;;;;;;;0.85;0.00;;;8.80;99.90;;;;;;4975600;28;20018;-74
2023/11/03 02:43:37;;;;;;;1.73;0.08;;;9.30;99.90;;;;;;4975758;28;20022;-74
2023/11/03 02:46:05;;;;;;;3.10;0.10;;;8.80;99.90;;;;;;4975658;28;20043;-74
2023/11/03 02:48:31;;;;;;;0.85;0.00;;;8.80;99.90;;;;;;4975382;28;20030;-74
2023/11/03 02:50:59;;;;;;;0.88;0.00;;;8.80;99.90;;;;;;4958113;28;20113;-74
2023/11/03 02:53:24;;;;;;;0.65;0.00;;;8.70;99.90;;;;;;4975681;28;20422;-74
2023/11/03 02:55:50;;;;;;;1.35;0.08;;;8.70;99.90;;;;;;4975398;28;20023;-74
2023/11/03 02:58:16;;;;;;;3.60;0.00;;;8.70;99.90;;;;;;4975016;28;20037;-73
2023/11/03 03:00:43;;;;;;;5.57;0.85;;;8.70;99.90;;;;;;4974233;28;20030;-74
2023/11/03 03:03:09;;;;;;;3.72;0.00;;;8.80;99.90;;;;;;4958190;28;20037;-74
2023/11/03 03:05:36;;;;;;;1.45;0.00;;;8.70;99.90;;;;;;4975323;28;20106;-74
2023/11/03 03:08:03;;;;;;;0.40;0.00;;;8.80;99.90;;;;;;4975254;28;20030;-74
2023/11/03 03:10:29;;;;;;;3.03;0.00;;;8.80;99.90;;;;;;4957952;28;20027;-74
2023/11/03 03:12:55;;;;;;;2.05;0.28;;;8.80;99.90;;;;;;4975639;28;20027;-74
2023/11/03 03:15:21;;;;;;;1.38;0.00;;;8.80;99.90;;;;;;4975180;28;20030;-74
2023/11/03 03:17:46;;;;;;;2.22;0.00;;;8.80;99.90;;;;;;4975503;28;20393;-73
2023/11/03 03:20:12;;;;;;;2.38;0.00;;;8.80;99.90;;;;;;4975249;28;20037;-73
2023/11/03 03:22:37;;;;;;;11.82;0.22;;;8.80;99.90;;;;;;4975665;28;20019;-74
2023/11/03 03:25:03;;;;;;;1.00;0.00;;;8.80;99.90;;;;;;4975110;28;20034;-74
2023/11/03 03:27:29;;;;;;;4.30;0.35;;;8.80;99.90;;;;;;4958068;28;20485;-74
2023/11/03 03:29:55;;;;;;;2.25;0.00;;;8.80;99.90;;;;;;4974961;28;20023;-73
2023/11/03 03:32:20;;;;;;;1.38;0.00;;;8.80;99.90;;;;;;4975092;28;20027;-74
2023/11/03 03:34:46;;;;;;;2.33;0.05;;;8.80;99.90;;;;;;4973732;28;20030;-74
2023/11/03 03:37:14;;;;;;;3.50;0.45;;;8.80;99.90;;;;;;4974769;28;20391;-74
2023/11/03 03:39:39;;;;;;;1.70;0.00;;;8.70;99.90;;;;;;4973544;28;20041;-74
2023/11/03 03:42:08;;;;;;;0.88;0.00;;;8.70;99.90;;;;;;4974898;28;20478;-74
2023/11/03 03:44:38;;;;;;;1.00;0.10;;;8.70;99.90;;;;;;4957464;28;20503;-74
2023/11/03 03:47:04;;;;;;;5.40;0.57;;;8.70;99.90;;;;;;4974737;28;20023;-74
2023/11/03 03:49:30;;;;;;;3.55;0.63;;;;;;;;;;4957467;28;20023;-75
2023/11/03 03:51:55;;;;;;;0.73;0.00;;;8.60;99.90;;;;;;4957230;28;20101;-75
2023/11/03 03:54:21;;;;;;;2.85;0.80;;;8.60;99.90;;;;;;4974889;28;20031;-75
2023/11/03 03:56:46;;;;;;;1.60;0.00;;;8.60;99.90;;;;;;4974682;28;20529;-75
2023/11/03 03:59:12;;;;;;;6.72;0.25;;;8.60;99.90;;;;;;4974640;28;20023;-75
2023/11/03 04:01:37;;;;;;;14.65;0.70;;;8.60;99.90;;;;;;4974592;28;20058;-74
2023/11/03 04:04:03;;;;;;;0.00;0.00;;;8.60;99.90;;;;;;4974674;28;20066;-75
2023/11/03 04:06:29;;;;;;;2.40;0.45;;;;;;;;;;4974441;28;20375;-75
2023/11/03 04:08:55;;;;;;;2.20;0.00;;;8.60;99.90;;;;;;4958053;28;20023;-74
2023/11/03 04:11:20;;;;;;;1.33;0.03;;;8.60;99.90;;;;;;4978422;28;20073;-74
2023/11/03 04:13:46;;;;;;;0.98;0.00;;;8.60;99.90;;;;;;4978365;28;20058;-75
2023/11/03 04:16:11;;;;;;;7.90;0.00;;;8.60;99.90;;;;;;4961016;28;20031;-75
2023/11/03 04:18:39;;;;;;;2.95;0.10;;;8.60;99.90;;;;;;4960948;28;20486;-75
2023/11/03 04:21:05;;;;;;;1.45;0.00;;;8.60;99.90;;;;;;4978851;28;20018;-75
2023/11/03 04:23:31;;;;;;;4.40;0.10;;;;;;;;;;4978230;28;20545;-75
2023/11/03 04:25:57;;;;;;;1.60;0.00;;;8.50;99.90;;;;;;4978114;28;20053;-75
2023/11/03 04:28:22;;;;;;;2.33;0.10;;;8.50;99.90;;;;;;4960820;28;20018;-75
2023/11/03 04:30:49;;;;;;;5.13;0.28;;;8.50;99.90;;;;;;4978148;28;20097;-74
2023/11/03 04:33:15;;;;;;;6.65;0.28;;;8.50;99.90;;;;;;4978006;28;20121;-74
2023/11/03 04:35:41;;;;;;;2.28;0.00;;;8.50;99.90;;;;;;4977980;28;20502;-75
2023/11/03 04:38:09;;;;;;;5.78;1.17;;;8.50;99.90;;;;;;4960525;28;20395;-75
2023/11/03 04:40:34;;;;;;;1.65;0.00;;;8.50;99.90;;;;;;4977807;28;20089;-74
2023/11/03 04:43:00;;;;;;;5.15;0.13;;;8.60;99.90;;;;;;4960457;28;20117;-75
2023/11/03 04:45:26;;;;;;;5.95;0.68;;;8.60;99.90;;;;;;4977944;28;20058;-75
2023/11/03 04:47:52;;;;;;;2.90;0.05;;;8.60;99.90;;;;;;4977915;28;20077;-75
2023/11/03 04:50:18;;;;;;;6.32;0.10;;;8.60;99.90;;;;;;4978059;28;20026;-74
2023/11/03 04:52:44;;;;;;;6.18;0.45;;;8.60;99.90;;;;;;4960361;28;20094;-74
2023/11/03 04:55:09;;;;;;;2.88;0.40;;;8.60;99.90;;;;;;4977630;28;20031;-74
2023/11/03 04:57:35;;;;;;;4.13;0.52;;;8.60;99.90;;;;;;4977584;28;20470;-74
2023/11/03 05:00:02;;;;;;;6.70;0.20;;;8.60;99.90;;;;;;4977580;28;20058;-74
2023/11/03 05:02:29;;;;;;;3.50;0.22;;;8.60;99.90;;;;;;4977555;28;20058;-74
2023/11/03 05:04:55;;;;;;;1.88;0.10;;;8.60;99.90;;;;;;4960262;28;20034;-74
2023/11/03 05:07:21;;;;;;;2.35;0.10;;;8.60;99.90;;;;;;4960153;28;20023;-74
2023/11/03 05:09:47;;;;;;;0.73;0.00;;;8.60;99.90;;;;;;4960122;28;20018;-74
2023/11/03 05:12:12;;;;;;;3.63;0.00;;;8.60;99.90;;;;;;4977269;28;20023;-74
2023/11/03 05:14:38;;;;;;;3.22;0.10;;;8.60;99.90;;;;;;4978160;28;20363;-74
2023/11/03 05:17:05;;;;;;;2.00;0.03;;;8.60;99.90;;;;;;4976095;28;20031;-74
2023/11/03 05:19:32;;;;;;;1.10;0.15;;;8.60;99.90;;;;;;4976935;28;20034;-73
2023/11/03 05:21:58;;;;;;;2.83;0.00;;;8.60;99.90;;;;;;4977063;28;20050;-73
2023/11/03 05:24:24;;;;;;;6.47;0.35;;;8.60;99.90;;;;;;4975953;28;20046;-73
2023/11/03 05:26:49;;;;;;;4.88;0.30;;;8.60;99.90;;;;;;4977042;28;20146;-73
2023/11/03 05:29:16;;;;;;;5.28;0.00;;;8.60;99.90;;;;;;4977132;28;20054;-73
2023/11/03 05:31:42;;;;;;;3.65;0.00;;;8.60;99.90;;;;;;4977564;28;20019;-73
2023/11/03 05:34:07;;;;;;;4.75;0.15;;;8.60;99.90;;;;;;4976966;28;20037;-73
2023/11/03 05:36:33;;;;;;;5.38;0.73;;;8.60;99.90;;;;;;4959434;28;20505;-73
2023/11/03 05:38:58;;;;;;;1.75;0.03;;;8.60;99.90;;;;;;4977554;28;20082;-73
2023/11/03 05:41:24;;;;;;;5.93;0.47;;;8.60;99.90;;;;;;4976737;28;20105;-73
2023/11/03 05:43:50;;;;;;;0.77;0.08;;;8.60;99.90;;;;;;4976860;28;20523;-73
2023/11/03 05:46:16;;;;;;;4.50;0.00;;;8.60;99.90;;;;;;4959487;28;20110;-73
2023/11/03 05:48:42;;;;;;;2.55;0.25;;;8.60;99.90;;;;;;4976793;28;20474;-74
2023/11/03 05:51:08;;;;;;;11.38;0.75;;;8.60;99.90;;;;;;4976671;28;20037;-74
2023/11/03 05:53:33;;;;;;;7.82;1.65;;;8.60;99.90;;;;;;4976638;28;20038;-74
2023/11/03 05:56:00;;;;;;;5.45;0.10;;;8.60;99.90;;;;;;4977236;28;20390;-74
2023/11/03 05:58:25;;;;;;;3.30;0.00;;;8.60;99.90;;;;;;4977226;28;20034;-74
2023/11/03 06:00:51;;;;;;;1.95;0.00;;;8.90;99.90;;;;;;4959037;28;20085;-74
2023/11/03 06:03:17;;;;;;;1.15;0.10;;;8.60;99.90;;;;;;4977321;28;20062;-74
2023/11/03 06:05:42;;;;;;;4.90;0.55;;;8.50;99.90;;;;;;4976915;28;20030;-74
2023/11/03 06:08:08;;;;;;;10.88;0.82;;;8.50;99.90;;;;;;4976295;28;20466;-74
2023/11/03 06:10:34;;;;;;;3.70;0.77;;;8.60;99.90;;;;;;4976433;28;20065;-74
2023/11/03 06:13:00;;;;;;;1.83;0.10;;;8.60;99.90;;;;;;4975028;28;20035;-74
2023/11/03 06:15:25;;;;;;;7.15;0.40;;;8.60;99.90;;;;;;4976776;28;20026;-74
2023/11/03 06:17:51;;;;;;;4.65;0.10;;;8.60;99.90;;;;;;4976248;28;20034;-74
2023/11/03 06:20:17;;;;;;;1.80;0.05;;;8.60;99.90;;;;;;4976096;28;20023;-74
2023/11/03 06:22:42;;;;;;;2.83;0.03;;;8.60;99.90;;;;;;4958673;28;20026;-74
2023/11/03 06:25:08;;;;;;;4.78;0.35;;;8.60;99.90;;;;;;4976236;28;20026;-74
2023/11/03 06:27:38;;;;;;;7.57;0.30;;;;;;;;;;4958555;28;20053;-75
2023/11/03 06:30:05;;;;;;;9.15;0.47;;;8.60;99.90;;;;;;4958742;28;20027;-74
2023/11/03 06:32:32;;;;;;;4.03;0.63;;;8.70;99.90;;;;;;4975430;28;20019;-74
2023/11/03 06:34:57;;;;;;;5.32;0.20;;;8.70;99.90;;;;;;4975084;28;20031;-74
2023/11/03 06:37:23;;;;;;;4.32;0.30;;;8.70;99.90;;;;;;4976214;28;20019;-74
2023/11/03 06:39:51;;;;;;;6.47;0.17;;;8.80;99.90;;;;;;4976233;28;20479;-74
2023/11/03 06:42:18;;;;;;;2.92;0.10;;;8.80;99.90;;;;;;4975978;28;20117;-74
2023/11/03 06:44:47;;;;;;;8.60;0.40;;;8.80;99.90;;;;;;4958716;28;20026;-73
2023/11/03 06:47:12;;;;;;;5.35;0.60;;;8.70;99.90;;;;;;4974769;28;20073;-74
2023/11/03 06:49:38;;;;;;;8.77;0.55;;;8.80;99.90;;;;;;4975620;28;20482;-74
2023/11/03 06:52:04;;;;;;;5.78;0.47;;;8.80;99.90;;;;;;4975550;28;20019;-74
2023/11/03 06:54:30;;;;;;;3.58;0.47;;;8.80;99.90;;;;;;4975471;28;20395;-74
2023/11/03 06:56:55;;;;;;;5.97;0.95;;;8.90;99.90;;;;;;4975320;28;20033;-75
2023/11/03 06:59:21;;;;;;;5.25;1.23;;;8.80;99.90;;;;;;4975511;28;20435;-74
2023/11/03 07:01:46;;;;;;;7.13;1.13;;;8.80;99.90;;;;;;4975437;28;20113;-74
2023/11/03 07:04:14;;;;;;;3.35;0.32;;;8.80;99.90;;;;;;4975419;28;20026;-74
2023/11/03 07:06:39;;;;;;;7.60;1.00;;;8.90;99.90;;;;;;4957831;28;20029;-74
2023/11/03 07:09:05;;;;;;;12.73;1.33;;;8.80;99.90;;;;;;4973140;28;20385;-75
2023/11/03 07:11:30;;;;;;;7.05;0.70;;;8.90;99.90;;;;;;4973512;28;20035;-75
2023/11/03 07:13:57;;;;;;;10.77;0.55;;;8.90;99.90;;;;;;4973284;28;20034;-75
2023/11/03 07:16:23;;;;;;;3.47;0.80;;;8.80;99.90;;;;;;4975158;28;20027;-74
2023/11/03 07:18:49;;;;;;;4.25;0.30;;;8.80;99.90;;;;;;4976023;28;20378;-75
2023/11/03 07:21:14;;;;;;;8.50;0.50;;;8.90;99.90;;;;;;4957907;28;20023;-74
2023/11/03 07:23:40;;;;;;;6.70;0.25;;;8.90;99.90;;;;;;4975109;28;20034;-74
2023/11/03 07:26:06;;;;;;;7.30;0.75;;;8.80;99.90;;;;;;4974899;28;20025;-74
2023/11/03 07:28:31;;;;;;;5.47;0.40;;;8.90;99.90;;;;;;4975103;28;20026;-74
2023/11/03 07:30:57;;;;;;;10.75;0.75;;;8.90;99.90;;;;;;4957819;28;20022;-74
2023/11/03 07:33:23;;;;;;;2.35;0.30;;;8.90;99.90;;;;;;4974913;28;20034;-74
2023/11/03 07:35:49;;;;;;;12.40;1.35;;;8.90;99.90;;;;;;4974997;28;20031;-74
2023/11/03 07:38:15;;;;;;;10.10;0.30;;;8.90;99.90;;;;;;4975258;28;20546;-74
2023/11/03 07:40:41;;;;;;;9.45;0.93;;;8.90;99.90;;;;;;4974797;28;20065;-74
2023/11/03 07:43:06;;;;;;;4.85;0.20;;;8.90;99.90;;;;;;4975024;28;20391;-73
2023/11/03 07:45:35;;;;;;;6.75;0.68;;;8.90;99.90;;;;;;4975381;28;20027;-74
2023/11/03 07:48:01;;;;;;;5.82;0.60;;;8.90;99.90;;;;;;4974464;28;20026;-74
2023/11/03 07:50:27;;;;;;;13.70;0.88;;;8.90;99.90;;;;;;4957474;28;20038;-74
2023/11/03 07:52:52;;;;;;;6.88;0.43;;;8.90;99.90;;;;;;4975036;28;20026;-74
2023/11/03 07:55:20;;;;;;;10.88;1.52;;;8.90;99.90;;;;;;4975665;28;20058;-74
2023/11/03 07:57:48;;;;;;;9.30;0.35;;;8.90;99.90;;;;;;4975145;28;20093;-74
2023/11/03 08:00:15;;;;;;;4.85;0.40;;;8.90;99.90;;;;;;4975001;28;20026;-74
2023/11/03 08:02:41;;;;;;;7.50;0.50;;;8.90;99.90;;;;;;4957946;28;20078;-74
2023/11/03 08:05:07;;;;;;;6.35;0.43;;;9.00;99.90;;;;;;4974771;28;20023;-73
2023/11/03 08:07:35;;;;;;;7.72;0.88;;;8.90;99.90;;;;;;4957321;28;20069;-74
2023/11/03 08:10:01;;;;;;;6.88;0.32;;;8.90;99.90;;;;;;4974857;28;20021;-74
2023/11/03 08:12:27;;;;;;;5.07;0.10;;;9.00;99.90;;;;;;4957221;28;20027;-75
2023/11/03 08:14:55;;;;;;;7.20;1.15;;;9.00;99.90;;;;;;4975396;28;20356;-75
2023/11/03 08:17:22;;;;;;;8.50;0.30;;;9.40;99.90;;;;;;4957159;28;20026;-75
2023/11/03 08:19:47;;;;;;;11.18;0.28;;;9.10;99.90;;;;;;4974571;28;20500;-75
2023/11/03 08:22:16;;;;;;;8.18;0.63;;;9.10;99.90;;;;;;4957082;28;20027;-75
2023/11/03 08:24:41;;;;;;;9.95;0.30;;;9.20;99.90;;;;;;4957056;28;20455;-75
2023/11/03 08:27:07;;;;;;;9.15;1.02;;;9.50;99.90;;;;;;4974668;28;20054;-75
2023/11/03 08:29:33;;;;;;;7.30;0.20;;;9.20;99.90;;;;;;4956944;28;20029;-75
2023/11/03 08:31:58;;;;;;;1.98;0.00;;;9.20;99.90;;;;;;4957515;28;20033;-75
2023/11/03 08:34:24;;;;;;;6.47;0.80;;;9.20;99.90;;;;;;4974335;28;20027;-75
2023/11/03 08:36:50;;;;;;;8.77;0.35;;;9.30;99.90;;;;;;4974456;28;20077;-75
2023/11/03 08:39:17;;;;;;;6.43;0.20;;;9.30;99.90;;;;;;4974497;28;20039;-75
2023/11/03 08:41:42;;;;;;;6.10;0.77;;;9.30;99.90;;;;;;4972941;28;20515;-75
2023/11/03 08:44:08;;;;;;;10.35;0.88;;;9.30;99.90;;;;;;4957216;28;20023;-76
2023/11/03 08:46:34;;;;;;;10.05;0.30;;;9.30;99.90;;;;;;4974277;28;20030;-75
2023/11/03 08:48:59;;;;;;;11.85;0.88;;;9.30;99.90;;;;;;4974256;28;20022;-75
2023/11/03 08:51:27;;;;;;;6.45;0.45;;;9.30;99.90;;;;;;4974083;28;20027;-75
2023/11/03 08:53:53;;;;;;;6.55;0.50;;;9.40;99.90;;;;;;4974734;28;20426;-75
2023/11/03 08:56:20;;;;;;;10.77;0.98;;;9.40;99.90;;;;;;4977082;28;20037;-75
2023/11/03 08:58:45;;;;;;;8.38;0.55;;;9.40;99.90;;;;;;4960392;28;20037;-75
2023/11/03 09:01:11;;;;;;;21.00;0.75;;;9.50;99.90;;;;;;4977701;28;20113;-75
2023/11/03 09:03:37;;;;;;;3.42;0.38;;;9.50;99.90;;;;;;4978055;28;20049;-76
2023/11/03 09:06:05;;;;;;;8.27;0.30;;;9.60;99.90;;;;;;4977529;28;20430;-75
2023/11/03 09:08:31;;;;;;;10.25;0.52;;;9.60;99.90;;;;;;4977513;28;20106;-75
2023/11/03 09:10:56;;;;;;;8.60;0.30;;;9.60;99.90;;;;;;4977467;28;20545;-75
2023/11/03 09:13:22;;;;;;;7.07;0.20;;;9.60;99.90;;;;;;4977537;28;20042;-75
2023/11/03 09:15:49;;;;;;;15.60;1.85;;;9.70;99.90;;;;;;4978228;28;20108;-75
2023/11/03 09:18:15;;;;;;;10.93;1.10;;;9.80;99.90;;;;;;4977271;28;20098;-75
2023/11/03 09:20:41;;;;;;;10.10;0.15;;;9.80;99.90;;;;;;4977284;28;20058;-75
2023/11/03 09:23:08;;;;;;;6.50;0.38;;;9.90;99.90;;;;;;4977248;28;20054;-75
2023/11/03 09:25:34;;;;;;;6.47;0.85;;;10.00;99.90;;;;;;4959969;28;20367;-75
2023/11/03 09:28:00;;;;;;;5.15;0.30;;;10.20;99.90;;;;;;4959806;28;20110;-76
2023/11/03 09:30:26;;;;;;;7.10;0.77;;;10.20;99.90;;;;;;4977247;28;20466;-76
2023/11/03 09:32:51;;;;;;;8.05;0.17;;;10.40;99.90;;;;;;4976978;28;20031;-75
2023/11/03 09:35:17;;;;;;;12.73;2.40;;;10.50;99.90;;;;;;4977051;28;20023;-76
2023/11/03 09:37:43;;;;;;;7.13;0.00;;;10.50;99.90;;;;;;4976911;28;20026;-76
2023/11/03 09:40:10;;;;;;;8.88;0.28;;;10.50;99.90;;;;;;4959746;28;20023;-75
2023/11/03 09:42:35;;;;;;;8.18;1.15;;;10.60;99.90;;;;;;4959630;28;20019;-76
2023/11/03 09:45:06;;;;;;;5.72;0.13;;;;;;;;;;4977138;28;20594;-76
2023/11/03 09:47:31;;;;;;;18.77;0.93;;;10.60;99.90;;;;;;4977237;28;20031;-75
2023/11/03 09:49:58;;;;;;;4.97;0.10;;;10.60;99.90;;;;;;4977383;28;20101;-76
2023/11/03 09:52:24;;;;;;;5.50;0.20;;;10.70;99.90;;;;;;4959341;28;20019;-76
2023/11/03 09:54:51;;;;;;;6.22;0.10;;;10.70;99.90;;;;;;4975802;28;20030;-76
2023/11/03 09:57:17;;;;;;;8.93;0.75;;;10.60;99.90;;;;;;4974941;28;20443;-75
2023/11/03 09:59:43;;;;;;;2.95;0.15;;;10.60;99.90;;;;;;4976706;28;20471;-76
2023/11/03 10:02:19;;;;;;;7.38;0.20;;;10.60;99.90;;;;;;4958935;28;20054;-76
2023/11/03 10:04:45;;;;;;;5.40;0.52;;;10.60;99.90;;;;;;4976948;28;20474;-76
2023/11/03 10:07:11;;;;;;;6.60;0.00;;;10.60;99.90;;;;;;4958426;28;20045;-76
2023/11/03 10:09:42;;;;;;;5.30;0.15;;;10.70;99.90;;;;;;4976555;28;20027;-77
2023/11/03 10:12:15;;;;;;;5.72;0.00;;;10.70;99.90;;;;;;4959010;28;20035;-76
2023/11/03 10:14:41;;;;;;;4.80;0.17;;;10.70;99.90;;;;;;4976879;28;20495;-76
2023/11/03 10:17:09;;;;;;;9.25;0.85;;;10.80;99.90;;;;;;4976444;28;20078;-76
2023/11/03 10:19:35;;;;;;;7.43;0.50;;;10.80;99.90;;;;;;4976567;28;20430;-76
2023/11/03 10:22:08;;;;;;;8.10;0.60;;;11.00;99.90;;;;;;4976669;28;20023;-76
2023/11/03 10:24:37;;;;;;;11.38;1.42;;;11.20;99.90;;;;;;4975469;28;20030;-76
2023/11/03 10:27:03;;;;;;;10.15;0.40;;;11.50;99.90;;;;;;4959084;28;20435;-76
2023/11/03 10:29:30;;;;;;;5.32;0.70;;;11.50;99.90;;;;;;4959214;28;20136;-76
2023/11/03 10:31:55;;;;;;;9.02;1.08;;;11.70;99.90;;;;;;4958948;28;20395;-76
2023/11/03 10:34:24;;;;;;;8.75;0.20;;;11.80;99.90;;;;;;4976278;28;20113;-76
2023/11/03 10:36:51;;;;;;;8.43;0.57;;;12.00;99.90;;;;;;4958601;28;20031;-76
2023/11/03 10:39:17;;;;;;;9.05;1.00;;;12.20;99.90;;;;;;4958445;28;20026;-76
2023/11/03 10:41:44;;;;;;;6.82;0.57;;;12.30;99.90;;;;;;4975685;28;20105;-76
2023/11/03 10:44:14;;;;;;;4.65;0.15;;;13.10;99.90;;;;;;4958484;28;20046;-76
2023/11/03 10:46:46;;;;;;;3.53;0.30;;;12.30;99.90;;;;;;4975822;28;20030;-76
2023/11/03 10:49:42;;;;;;;5.68;0.47;;;12.40;99.90;;;;;;4974570;28;20065;-77
2023/11/03 10:52:28;;;;;;;4.72;0.50;;;12.40;99.90;;;;;;4976575;28;20030;-77
2023/11/03 10:55:06;;;;;;;3.05;0.20;;;12.30;99.90;;;;;;4958245;28;20109;-77
2023/11/03 10:57:32;;;;;;;;;;;12.30;99.90;;;;;;4975884;28;20050;-76
2023/11/03 11:00:22;;;;;;;7.43;0.17;;;12.30;99.90;;;;;;4975523;28;19910;-76
2023/11/03 11:03:29;;;;;;;4.50;0.50;;;12.30;99.90;;;;;;4958365;28;20034;-76
2023/11/03 11:06:40;;;;;;;8.05;0.47;;;12.20;99.90;;;;;;4974528;28;20394;-77
2023/11/03 11:09:39;;;;;;;6.40;0.15;;;12.10;99.90;;;;;;4935029;29;20040;-76
2023/11/03 11:12:07;;;;;;;6.55;0.55;;;12.00;99.90;;;;;;4915353;29;20039;-76
2023/11/03 11:14:43;;;;;;;5.35;1.20;;;11.90;99.90;;;;;;4965554;28;20042;-77
2023/11/03 11:17:23;;;;;;;5.90;0.25;;;11.70;99.90;;;;;;4975576;28;20023;-76
2023/11/03 11:19:54;;;;;;;4.68;0.45;;;11.50;99.90;;;;;;4975441;28;20034;-77
2023/11/03 11:22:26;;;;;;;3.88;0.15;;;11.50;99.90;;;;;;4975215;28;20023;-76
2023/11/03 11:24:54;;;;;;;12.13;0.52;;;11.40;99.90;;;;;;4975060;28;20019;-76
2023/11/03 11:27:22;;;;;;;7.72;0.28;;;11.30;99.90;;;;;;4975333;28;20015;-76
2023/11/03 11:29:50;;;;;;;5.88;0.30;;;11.30;99.90;;;;;;4975607;28;20026;-76
2023/11/03 11:32:17;;;;;;;3.93;0.00;;;11.20;99.90;;;;;;4957947;28;20028;-76
2023/11/03 11:34:44;;;;;;;3.17;0.15;;;11.20;99.90;;;;;;4957876;28;20266;-77
2023/11/03 11:37:30;;;;;;;8.55;0.80;;;11.20;99.90;;;;;;4975081;28;20054;-76
2023/11/03 11:40:01;;;;;;;6.32;0.75;;;11.30;99.90;;;;;;4974974;28;20047;-76
2023/11/03 11:42:31;;;;;;;6.38;0.30;;;11.30;99.90;;;;;;4957755;28;20073;-76
2023/11/03 11:45:01;;;;;;;7.93;0.30;;;11.40;99.90;;;;;;4974853;28;20033;-76
2023/11/03 11:47:28;;;;;;;17.63;1.70;;;11.50;99.90;;;;;;4974679;28;20422;-76
2023/11/03 11:49:55;;;;;;;3.95;0.13;;;11.50;99.90;;;;;;4974976;28;20427;-76
2023/11/03 11:52:25;;;;;;;6.88;0.20;;;11.60;99.90;;;;;;4975003;28;20483;-76
2023/11/03 11:54:55;;;;;;;6.55;0.10;;;11.80;99.90;;;;;;4974890;28;20027;-76
2023/11/03 11:57:24;;;;;;;7.63;0.25;;;11.80;99.90;;;;;;4974882;28;20023;-76
2023/11/03 11:59:51;;;;;;;2.03;0.10;;;12.30;99.90;;;;;;4975077;28;20023;-76
2023/11/03 12:02:22;;;;;;;6.05;0.35;;;12.00;99.90;;;;;;4975549;28;20478;-76
2023/11/03 12:04:52;;;;;;;7.32;0.55;;;12.00;99.90;;;;;;4975073;28;20015;-76
2023/11/03 12:07:22;;;;;;;9.07;0.68;;;12.20;99.90;;;;;;4975512;28;20026;-76
2023/11/03 12:09:54;;;;;;;12.23;0.43;;;12.30;99.90;;;;;;4975044;28;20030;-76
2023/11/03 12:12:21;;;;;;;2.70;0.43;;;12.30;99.90;;;;;;4974319;28;20399;-76
2023/11/03 12:14:50;;;;;;;5.78;0.20;;;12.50;99.90;;;;;;4957129;28;20031;-76
2023/11/03 12:17:16;;;;;;;;;;;12.60;99.90;;;;;;4957426;28;20022;-76
2023/11/03 12:19:46;;;;;;;5.50;0.22;;;12.60;99.90;;;;;;4974367;28;20429;-76
2023/11/03 12:22:24;;;;;;;5.30;0.30;;;12.50;99.90;;;;;;4974226;28;20063;-76
2023/11/03 12:24:53;;;;;;;2.55;0.15;;;12.70;99.90;;;;;;4974323;28;20023;-77
2023/11/03 12:27:19;;;;;;;7.10;0.63;;;12.90;99.90;;;;;;4974060;28;20019;-76
2023/11/03 12:29:45;;;;;;;5.90;0.13;;;13.00;99.90;;;;;;4957630;28;20173;-76
2023/11/03 12:32:11;;;;;;;8.02;0.35;;;13.10;99.90;;;;;;4978353;28;20124;-76
2023/11/03 12:34:37;;;;;;;9.20;0.55;;;13.30;99.90;;;;;;4977912;28;20031;-76
2023/11/03 12:37:07;;;;;;;5.35;0.17;;;13.10;99.90;;;;;;4976850;28;20030;-76
2023/11/03 12:39:52;;;;;;;10.15;0.70;;;13.10;99.90;;;;;;4978085;28;20029;-76
2023/11/03 12:42:22;;;;;;;3.60;0.00;;;12.80;99.90;;;;;;4977785;28;20393;-76
2023/11/03 12:45:00;;;;;;;9.63;0.00;;;12.90;99.90;;;;;;4960819;28;20054;-76
2023/11/03 12:47:44;;;;;;;11.52;1.55;;;12.70;99.90;;;;;;4977914;28;20018;-76
2023/11/03 12:50:20;;;;;;;6.97;0.22;;;12.60;99.90;;;;;;4977838;28;20406;-76
2023/11/03 12:52:47;;;;;;;4.78;0.22;;;12.50;99.90;;;;;;4960373;28;20050;-76
2023/11/03 12:55:19;;;;;;;9.85;0.25;;;12.40;99.90;;;;;;4960361;28;20054;-76
2023/11/03 12:57:45;;;;;;;8.27;1.02;;;12.30;99.90;;;;;;4977778;28;20034;-76